Time;durP1;ratioP1;P1;durP2;ratioP2;P2;SDS_P1;SDS_P2;PMS_P1;PMS_P2;Temp;Humidity;BMP_temperature;BMP_pressure;BME280_temperature;BME280_humidity;BME280_pressure;Samples;Min_cycle;Max_cycle;Signal;HPM_P1;HPM_P2
2023/07/28 00:00:31;;;;;;;3.63;1.70;;;;;;;17.37;100.00;100156.63;5033899;28;20691;-67
2023/07/28 00:02:56;;;;;;;3.72;1.92;;;;;;;17.38;100.00;100157.47;5043723;28;20044;-67
2023/07/28 00:05:21;;;;;;;2.88;1.50;;;;;;;17.40;100.00;100168.69;5049717;28;20028;-66
2023/07/28 00:07:47;;;;;;;2.70;1.70;;;;;;;17.40;100.00;100169.53;5036731;28;20708;-66
2023/07/28 00:10:12;;;;;;;3.38;1.75;;;;;;;17.40;100.00;100169.53;5038531;28;20518;-67
2023/07/28 00:12:38;;;;;;;3.63;1.90;;;;;;;17.41;100.00;100166.03;5039565;28;20036;-67
2023/07/28 00:15:03;;;;;;;2.40;1.38;;;;;;;17.42;100.00;100159.84;5043243;28;20036;-67
2023/07/28 00:17:29;;;;;;;3.45;1.30;;;;;;;17.41;100.00;100158.19;5045340;28;20028;-67
2023/07/28 00:19:54;;;;;;;4.95;1.80;;;;;;;17.41;100.00;100158.19;5044168;28;20043;-66
2023/07/28 00:22:20;;;;;;;3.13;1.38;;;;;;;17.44;100.00;100157.19;5037371;28;20025;-67
2023/07/28 00:24:45;;;;;;;3.83;1.73;;;;;;;17.43;100.00;100160.72;5031737;28;20045;-66
2023/07/28 00:27:12;;;;;;;3.38;1.90;;;;;;;17.43;100.00;100163.31;5034677;28;20041;-66
2023/07/28 00:29:38;;;;;;;3.85;1.75;;;;;;;17.43;100.00;100169.41;5035007;28;20045;-66
2023/07/28 00:32:03;;;;;;;2.60;1.40;;;;;;;17.42;100.00;100167.69;5035792;28;20048;-66
2023/07/28 00:34:29;;;;;;;3.17;1.92;;;;;;;17.44;100.00;100167.63;5034606;28;20183;-66
2023/07/28 00:36:54;;;;;;;1.58;1.30;;;;;;;17.45;100.00;100164.13;5036115;28;20033;-66
2023/07/28 00:39:20;;;;;;;5.57;2.67;;;;;;;17.46;100.00;100164.94;5036775;28;20538;-66
2023/07/28 00:41:45;;;;;;;2.65;1.70;;;;;;;17.47;100.00;100167.50;5046407;28;20075;-67
2023/07/28 00:44:10;;;;;;;3.50;1.70;;;;;;;17.48;100.00;100165.75;5052496;28;20032;-66
2023/07/28 00:46:36;;;;;;;6.53;2.55;;;;;;;17.48;100.00;100160.50;5037166;28;20021;-66
2023/07/28 00:49:03;;;;;;;1.90;1.23;;;;;;;17.48;100.00;100155.28;5039094;28;20700;-67
2023/07/28 00:51:31;;;;;;;1.90;1.33;;;;;;;17.47;100.00;100154.44;5032759;28;20091;-67
2023/07/28 00:53:59;;;;;;;2.25;1.50;;;;;;;17.47;100.00;100150.97;5034778;28;20143;-66
2023/07/28 00:56:24;;;;;;;2.80;1.23;;;;;;;17.47;100.00;100149.22;5033137;28;20032;-66
2023/07/28 00:58:51;;;;;;;2.90;1.30;;;;;;;17.48;100.00;100152.69;5040987;28;20616;-66
2023/07/28 01:01:16;;;;;;;3.88;1.38;;;;;;;17.47;100.00;100148.34;5035897;28;20049;-66
2023/07/28 01:03:42;;;;;;;1.63;1.25;;;;;;;17.47;100.00;100145.75;5040755;28;20033;-66
2023/07/28 01:06:14;;;;;;;3.80;1.52;;;;;;;17.48;100.00;100147.44;5043318;28;20041;-67
2023/07/28 01:09:05;;;;;;;4.63;1.67;;;;;;;17.47;100.00;100143.97;5032508;28;20052;-67
2023/07/28 01:11:31;;;;;;;3.53;1.50;;;;;;;17.49;100.00;100151.72;5035334;28;20037;-67
2023/07/28 01:13:56;;;;;;;4.50;1.50;;;;;;;17.49;100.00;100149.97;5038970;28;20033;-66
2023/07/28 01:16:23;;;;;;;2.10;1.40;;;;;;;17.51;100.00;100150.78;5034621;28;20124;-66
2023/07/28 01:18:48;;;;;;;3.05;1.58;;;;;;;17.52;100.00;100148.97;5035270;28;20069;-66
2023/07/28 01:21:43;;;;;;;2.42;1.50;;;;;;;17.49;100.00;100146.50;5041801;28;20135;-66
2023/07/28 01:24:15;;;;;;;1.95;1.23;;;;;;;17.49;100.00;100142.13;5036863;28;20128;-66
2023/07/28 01:26:41;;;;;;;3.92;1.60;;;;;;;17.52;100.00;100143.75;5033989;28;20052;-65
2023/07/28 01:29:07;;;;;;;2.42;1.30;;;;;;;17.49;100.00;100142.13;5036849;28;20033;-66
2023/07/28 01:31:32;;;;;;;2.45;1.27;;;;;;;17.49;100.00;100144.75;5030589;28;20090;-66
2023/07/28 01:33:58;;;;;;;4.65;1.70;;;;;;;17.50;100.00;100141.22;5030838;28;20041;-66
2023/07/28 01:36:23;;;;;;;2.85;1.40;;;;;;;17.49;100.00;100147.38;5035132;28;20569;-66
2023/07/28 01:38:49;;;;;;;3.25;1.33;;;;;;;17.52;100.00;100146.38;5036533;28;20067;-66
2023/07/28 01:41:14;;;;;;;2.38;1.30;;;;;;;17.51;100.00;100148.16;5036439;28;20562;-66
2023/07/28 01:43:41;;;;;;;4.13;1.55;;;;;;;17.53;100.00;100150.69;5032717;28;20037;-66
2023/07/28 01:46:07;;;;;;;2.65;1.52;;;;;;;17.55;100.00;100152.31;5034112;28;20071;-66
2023/07/28 01:48:33;;;;;;;2.05;1.42;;;;;;;17.54;100.00;100145.41;5031605;28;20208;-66
2023/07/28 01:50:58;;;;;;;3.90;1.40;;;;;;;17.55;100.00;100149.69;5036155;28;20109;-66
2023/07/28 01:53:23;;;;;;;3.20;1.50;;;;;;;17.56;100.00;100147.94;5033890;28;20049;-66
2023/07/28 01:55:49;;;;;;;2.17;1.52;;;;;;;17.56;100.00;100145.31;5035143;28;20136;-66
2023/07/28 01:58:14;;;;;;;2.25;1.38;;;;;;;17.55;100.00;100146.22;5034302;28;20456;-66
2023/07/28 02:00:39;;;;;;;2.08;1.33;;;;;;;17.57;100.00;100154.88;5031694;28;20051;-66
2023/07/28 02:03:05;;;;;;;2.50;1.27;;;;;;;17.55;100.00;100147.06;5034964;28;20079;-66
2023/07/28 02:05:31;;;;;;;2.75;0.95;;;;;;;17.57;100.00;100150.50;5035909;28;20047;-67
2023/07/28 02:07:57;;;;;;;2.55;1.23;;;;;;;17.57;100.00;100147.88;5035916;28;20037;-66
2023/07/28 02:10:23;;;;;;;2.60;1.25;;;;;;;17.57;100.00;100149.63;5034048;28;20044;-66
2023/07/28 02:12:50;;;;;;;1.52;1.25;;;;;;;17.57;100.00;100149.63;5033379;28;20044;-67
2023/07/28 02:15:15;;;;;;;3.25;1.33;;;;;;;17.59;100.00;100145.19;5034733;28;20033;-67
2023/07/28 02:17:41;;;;;;;3.30;1.33;;;;;;;17.58;100.00;100146.09;5031356;28;20087;-67
2023/07/28 02:20:10;;;;;;;2.53;1.10;;;;;;;17.57;100.00;100144.41;5035098;28;20772;-66
2023/07/28 02:22:36;;;;;;;2.10;1.15;;;;;;;17.58;100.00;100146.09;5036896;28;20558;-66
2023/07/28 02:25:01;;;;;;;1.60;1.25;;;;;;;17.58;100.00;100151.31;5037955;28;20048;-66
2023/07/28 02:27:27;;;;;;;2.33;1.30;;;;;;;17.59;100.00;100151.25;5043365;28;20697;-66
2023/07/28 02:29:52;;;;;;;2.17;1.20;;;;;;;17.58;100.00;100146.09;5038376;28;20529;-67
2023/07/28 02:32:17;;;;;;;2.85;1.10;;;;;;;17.58;100.00;100149.56;5038326;28;20119;-67
2023/07/28 02:34:43;;;;;;;3.20;1.17;;;;;;;17.58;100.00;100146.09;5038310;28;20040;-67
2023/07/28 02:37:08;;;;;;;2.67;1.30;;;;;;;17.58;100.00;100146.09;5040719;28;20033;-66
2023/07/28 02:39:33;;;;;;;3.60;1.20;;;;;;;17.58;100.00;100146.94;5036908;28;20889;-67
2023/07/28 02:41:59;;;;;;;2.70;1.20;;;;;;;17.60;100.00;100147.69;5040029;28;20445;-67
2023/07/28 02:44:24;;;;;;;2.88;1.40;;;;;;;17.61;100.00;100149.41;5041853;28;20075;-67
2023/07/28 02:46:49;;;;;;;2.08;1.17;;;;;;;17.63;100.00;100146.75;5036822;28;20032;-66
2023/07/28 02:49:15;;;;;;;2.47;1.23;;;;;;;17.64;100.00;100151.03;5040768;28;20064;-67
2023/07/28 02:51:41;;;;;;;1.65;1.10;;;;;;;17.64;100.00;100151.88;5038909;28;20124;-66
2023/07/28 02:54:07;;;;;;;2.08;1.15;;;;;;;17.65;100.00;100155.34;5039190;28;20067;-67
2023/07/28 02:56:37;;;;;;;3.55;1.13;;;;;;;17.65;100.00;100153.59;5037025;28;20491;-67
2023/07/28 02:59:03;;;;;;;3.50;1.20;;;;;;;17.66;100.00;100157.88;5039850;28;20513;-67
2023/07/28 03:01:32;;;;;;;1.60;1.05;;;;;;;17.67;100.00;100163.94;5040043;28;20045;-67
2023/07/28 03:03:59;;;;;;;1.98;0.85;;;;;;;17.68;100.00;100160.44;5041400;28;20056;-66
2023/07/28 03:06:24;;;;;;;2.03;0.88;;;;;;;17.68;100.00;100169.13;5047001;28;20040;-66
2023/07/28 03:08:50;;;;;;;1.08;0.88;;;;;;;17.65;100.00;100158.81;5037048;28;20049;-66
2023/07/28 03:11:15;;;;;;;0.95;0.65;;;;;;;17.64;100.00;100162.34;5040998;28;20032;-66
2023/07/28 03:13:40;;;;;;;10.25;1.23;;;;;;;17.64;100.00;100167.56;5041486;28;20033;-67
2023/07/28 03:16:06;;;;;;;2.80;1.25;;;;;;;17.66;100.00;100163.09;5041751;28;20605;-67
2023/07/28 03:18:31;;;;;;;0.75;0.60;;;;;;;17.66;100.00;100165.72;5042927;28;20061;-67
2023/07/28 03:20:56;;;;;;;1.80;0.88;;;;;;;17.68;100.00;100161.28;5037281;28;20123;-66
2023/07/28 03:23:22;;;;;;;2.55;0.95;;;;;;;17.67;100.00;100162.19;5047522;28;20039;-66
2023/07/28 03:25:47;;;;;;;0.98;0.70;;;;;;;17.68;100.00;100161.28;5046738;28;20100;-67
2023/07/28 03:28:12;;;;;;;2.50;1.17;;;;;;;17.69;100.00;100170.78;5034864;28;20048;-67
2023/07/28 03:30:38;;;;;;;2.20;0.90;;;;;;;17.70;100.00;100163.81;5037089;28;20715;-66
2023/07/28 03:33:03;;;;;;;1.33;0.70;;;;;;;17.68;100.00;100165.66;5032028;28;20051;-66
2023/07/28 03:35:28;;;;;;;1.40;1.00;;;;;;;17.70;100.00;100158.59;5038378;28;20080;-67
2023/07/28 03:37:54;;;;;;;1.45;0.85;;;;;;;17.71;100.00;100165.50;5041107;28;20036;-66
2023/07/28 03:40:19;;;;;;;2.30;0.90;;;;;;;17.70;100.00;100162.03;5038331;28;20036;-66
2023/07/28 03:42:45;;;;;;;2.40;1.00;;;;;;;17.70;100.00;100169.88;5033957;28;20068;-66
2023/07/28 03:45:10;;;;;;;1.25;0.93;;;;;;;17.71;100.00;100166.38;5043723;28;20041;-66
2023/07/28 03:47:36;;;;;;;0.90;0.70;;;;;;;17.73;100.00;100161.91;5034927;28;20033;-67
2023/07/28 03:50:02;;;;;;;0.85;0.70;;;;;;;17.74;100.00;100154.91;5039459;28;20044;-66
2023/07/28 03:52:27;;;;;;;2.08;0.80;;;;;;;17.73;100.00;100169.75;5032478;28;20507;-66
2023/07/28 03:54:53;;;;;;;1.75;0.80;;;;;;;17.75;100.00;100161.84;5041044;28;20148;-67
2023/07/28 03:57:18;;;;;;;1.35;0.90;;;;;;;17.76;100.00;100164.38;5034760;28;20537;-66
2023/07/28 03:59:43;;;;;;;0.98;0.80;;;;;;;17.76;100.00;100168.75;5034679;28;20056;-66
2023/07/28 04:02:09;;;;;;;1.02;0.70;;;;;;;17.76;100.00;100166.13;5033906;28;20029;-66
2023/07/28 04:04:36;;;;;;;2.45;0.93;;;;;;;17.77;100.00;100170.44;5038911;28;20037;-66
2023/07/28 04:07:01;;;;;;;1.77;1.02;;;;;;;17.78;100.00;100164.31;5048314;28;20037;-66
2023/07/28 04:09:27;;;;;;;1.27;0.88;;;;;;;17.79;100.00;100169.47;5046028;28;20058;-66
2023/07/28 04:11:52;;;;;;;1.70;1.00;;;;;;;17.79;100.00;100166.00;5045549;28;20041;-66
2023/07/28 04:14:18;;;;;;;3.17;0.95;;;;;;;17.80;100.00;100165.09;5038182;28;20078;-66
2023/07/28 04:16:43;;;;;;;2.38;0.70;;;;;;;17.80;100.00;100168.56;5033947;28;20484;-66
2023/07/28 04:19:08;;;;;;;1.63;0.93;;;;;;;17.82;100.00;100168.47;5036416;28;20045;-66
2023/07/28 04:21:34;;;;;;;1.30;0.77;;;;;;;17.82;100.00;100169.31;5037817;28;20084;-66
2023/07/28 04:23:59;;;;;;;4.93;1.25;;;;;;;17.84;100.00;100171.88;5038206;28;20127;-67
2023/07/28 04:26:25;;;;;;;2.28;0.77;;;;;;;17.84;100.00;100175.34;5045374;28;20111;-67
2023/07/28 04:28:50;;;;;;;1.85;0.77;;;;;;;17.86;100.00;100175.28;5049526;28;20067;-67
2023/07/28 04:31:16;;;;;;;4.93;1.00;;;;;;;17.88;100.00;100178.66;5043696;28;20032;-66
2023/07/28 04:33:44;;;;;;;1.63;0.60;;;;;;;17.88;100.00;100176.91;5026128;28;20049;-67
2023/07/28 04:36:09;;;;;;;2.40;0.70;;;;;;;17.88;100.00;100179.50;5035303;28;20044;-67
2023/07/28 04:38:35;;;;;;;2.33;0.70;;;;;;;17.92;100.00;100182.84;5038211;28;20037;-68
2023/07/28 04:41:00;;;;;;;3.45;1.10;;;;;;;17.94;100.00;100183.59;5036362;28;20041;-68
2023/07/28 04:43:31;;;;;;;1.30;0.70;;;;;;;17.95;100.00;100186.16;5034728;28;20616;-67
2023/07/28 04:45:57;;;;;;;0.80;0.70;;;;;;;17.96;100.00;100184.38;5034026;28;20068;-67
2023/07/28 04:48:22;;;;;;;2.45;0.77;;;;;;;17.98;100.00;100190.38;5040617;28;20043;-67
2023/07/28 04:50:48;;;;;;;1.50;0.60;;;;;;;18.00;100.00;100191.16;5041641;28;20727;-64
2023/07/28 04:53:13;;;;;;;2.35;0.80;;;;;;;18.03;100.00;100192.78;5046458;28;20044;-65
2023/07/28 04:55:38;;;;;;;1.60;0.90;;;;;;;18.04;100.00;100189.25;5037633;28;20025;-65
2023/07/28 04:58:04;;;;;;;1.77;0.77;;;;;;;18.07;100.00;100189.09;5038248;28;20052;-65
2023/07/28 05:00:29;;;;;;;1.45;0.98;;;;;;;18.08;100.00;100189.00;5029798;28;20320;-65
2023/07/28 05:02:54;;;;;;;1.85;0.82;;;;;;;18.11;100.00;100191.47;5034318;28;20037;-65
2023/07/28 05:05:20;;;;;;;2.03;0.70;;;;;;;18.13;100.00;100196.66;5037909;28;20691;-64
2023/07/28 05:07:45;;;;;;;2.38;0.75;;;;;;;18.13;100.00;100194.03;5034626;28;20033;-64
2023/07/28 05:10:11;;;;;;;2.63;0.60;;;;;;;18.18;100.00;100197.25;5045340;28;20044;-65
2023/07/28 05:12:36;;;;;;;2.85;0.80;;;;;;;18.23;100.00;100201.34;5045936;28;20076;-65
2023/07/28 05:15:02;;;;;;;0.98;0.52;;;;;;;18.30;100.00;100208.00;5041150;28;20190;-64
2023/07/28 05:17:27;;;;;;;2.22;0.80;;;;;;;18.32;100.00;100208.75;5036176;28;20037;-65
2023/07/28 05:19:53;;;;;;;2.50;0.70;;;;;;;18.35;100.00;100203.38;5034242;28;20132;-64
2023/07/28 05:22:18;;;;;;;1.40;0.90;;;;;;;18.38;100.00;100210.22;5034042;28;20664;-64
2023/07/28 05:24:44;;;;;;;2.70;0.80;;;;;;;18.39;100.00;100209.31;5040635;28;20568;-64
2023/07/28 05:27:11;;;;;;;2.92;1.27;;;;;;;18.41;100.00;100210.91;5041354;28;20131;-65
2023/07/28 05:29:36;;;;;;;1.58;0.90;;;;;;;18.44;100.00;100215.16;5032379;28;20385;-65
2023/07/28 05:32:02;;;;;;;1.92;0.98;;;;;;;18.44;100.00;100218.63;5036669;28;20537;-64
2023/07/28 05:34:27;;;;;;;0.73;0.60;;;;;;;18.44;100.00;100221.25;5028201;28;20045;-64
2023/07/28 05:36:53;;;;;;;1.40;0.50;;;;;;;18.45;100.00;100211.63;5033787;28;20048;-64
2023/07/28 05:39:19;;;;;;;2.47;1.13;;;;;;;18.43;100.00;100216.09;5030116;28;20029;-64
2023/07/28 05:41:44;;;;;;;1.02;0.60;;;;;;;18.47;100.00;100215.84;5032753;28;20376;-64
2023/07/28 05:44:09;;;;;;;1.35;0.80;;;;;;;18.54;100.00;100221.63;5031973;28;20039;-64
2023/07/28 05:46:35;;;;;;;3.50;0.80;;;;;;;18.57;100.00;100213.63;5032761;28;20025;-65
2023/07/28 05:49:00;;;;;;;1.10;0.90;;;;;;;18.61;100.00;100222.19;5032123;28;20143;-64
2023/07/28 05:51:26;;;;;;;1.10;0.75;;;;;;;18.67;100.00;100227.13;5035232;28;20073;-63
2023/07/28 05:53:51;;;;;;;1.98;0.98;;;;;;;18.69;100.00;100231.34;5036511;28;20403;-65
2023/07/28 05:56:17;;;;;;;2.65;1.10;;;;;;;18.72;100.00;100227.72;5031066;28;20472;-66
2023/07/28 05:58:43;;;;;;;1.48;0.70;;;;;;;18.75;100.00;100222.34;5030906;28;20029;-64
2023/07/28 06:01:08;;;;;;;5.30;1.08;;;;;;;18.73;100.00;100227.63;5021410;28;20055;-63
2023/07/28 06:03:34;;;;;;;4.78;1.17;;;;;;;18.78;100.00;100224.81;5027159;28;20126;-64
2023/07/28 06:05:59;;;;;;;1.63;0.70;;;;;;;18.77;100.00;100226.56;5034150;28;20569;-65
2023/07/28 06:08:24;;;;;;;3.92;0.70;;;;;;;18.83;100.00;100234.13;5031670;28;20041;-64
2023/07/28 06:10:50;;;;;;;1.90;0.77;;;;;;;18.88;100.00;100231.28;5035191;28;20025;-65
2023/07/28 06:13:15;;;;;;;1.60;0.88;;;;;;;18.93;100.00;100234.53;5026467;28;20061;-64
2023/07/28 06:15:42;;;;;;;1.73;1.05;;;;;;;18.93;100.00;100232.78;5024530;28;20041;-64
2023/07/28 06:18:07;;;;;;;1.48;0.80;;;;;;;18.98;100.00;100241.22;5028780;28;20186;-63
2023/07/28 06:20:34;;;;;;;1.60;0.70;;;;;;;19.03;100.00;100235.75;5036137;28;20563;-64
2023/07/28 06:23:00;;;;;;;1.58;0.75;;;;;;;19.08;100.00;100244.22;5046788;28;20033;-64
2023/07/28 06:25:25;;;;;;;1.65;0.90;;;;;;;19.08;100.00;100249.47;5037979;28;20760;-64
2023/07/28 06:27:51;;;;;;;3.17;0.80;;;;;;;19.10;100.00;100247.63;5037269;28;20044;-64
2023/07/28 06:30:16;;;;;;;0.90;0.57;;;;;;;19.16;100.00;100251.69;5044488;28;20040;-64
2023/07/28 06:32:42;;;;;;;2.20;0.40;;;;;;;19.20;100.00;100248.84;5033789;28;20131;-65
2023/07/28 06:35:09;;;;;;;1.58;0.63;;;;;;;19.20;100.00;100251.47;5035395;28;20091;-64
2023/07/28 06:37:37;;;;;;;0.98;0.60;;;;;;;19.21;100.00;100247.03;5040022;28;20029;-64
2023/07/28 06:40:05;;;;;;;0.80;0.52;;;;;;;19.25;100.00;100248.59;5047766;28;20041;-64
2023/07/28 06:42:30;;;;;;;2.65;0.55;;;;;;;19.33;100.00;100252.50;5045130;28;20415;-64
2023/07/28 06:44:56;;;;;;;0.98;0.77;;;;;;;19.41;100.00;100259.97;5031856;28;20499;-65
2023/07/28 06:47:22;;;;;;;1.00;0.55;;;;;;;19.54;100.00;100259.22;5031102;28;20036;-65
2023/07/28 06:49:47;;;;;;;1.45;0.40;;;;;;;19.73;100.00;100264.34;5026570;28;20073;-64
2023/07/28 06:52:13;;;;;;;2.70;0.40;;;;;;;19.85;100.00;100263.72;5036864;28;20046;-64
2023/07/28 06:54:39;;;;;;;0.85;0.52;;;;;;;19.83;100.00;100262.13;5042500;28;20590;-65
2023/07/28 06:57:06;;;;;;;1.02;0.32;;;;;;;19.89;100.00;100270.47;5033607;28;20037;-64
2023/07/28 06:59:32;;;;;;;1.30;0.47;;;;;;;19.93;100.00;100271.16;5036068;28;20085;-65
2023/07/28 07:01:57;;;;;;;2.60;0.50;;;;;;;20.00;100.00;100270.75;5036535;28;20136;-64
2023/07/28 07:04:22;;;;;;;0.35;0.30;;;;;;;20.11;100.00;100275.41;5034897;28;20660;-65
2023/07/28 07:06:48;;;;;;;2.33;0.40;;;;;;;20.21;100.00;100271.34;5035738;28;20190;-64
2023/07/28 07:09:16;;;;;;;1.30;0.32;;;;;;;20.20;100.00;100267.03;5036729;28;20056;-64
2023/07/28 07:11:41;;;;;;;0.50;0.20;;;;;;;20.14;100.00;100276.09;5034680;28;20041;-64
2023/07/28 07:14:07;;;;;;;2.17;0.30;;;;;;;20.08;100.00;100279.06;5039082;28;20052;-65
2023/07/28 07:16:33;;;;;;;1.23;0.43;;;;;;;20.11;100.00;100280.66;5035481;28;20083;-64
2023/07/28 07:18:59;;;;;;;1.35;0.30;;;;;;;20.14;100.00;100289.22;5037197;28;20048;-64
2023/07/28 07:21:24;;;;;;;5.63;0.38;;;;;;;20.16;100.00;100282.09;5035039;28;20045;-64
2023/07/28 07:23:50;;;;;;;1.65;0.40;;;;;;;20.18;100.00;100280.22;5046007;28;20041;-64
2023/07/28 07:26:15;;;;;;;0.82;0.50;;;;;;;20.27;100.00;100286.75;5036112;28;20042;-64
2023/07/28 07:28:40;;;;;;;0.32;0.20;;;;;;;20.39;100.00;100290.47;5036391;28;20095;-65
2023/07/28 07:31:13;;;;;;;1.80;0.50;;;;;;;20.49;100.00;100289.00;5045450;28;20524;-65
2023/07/28 07:33:39;;;;;;;2.05;0.30;;;;;;;20.58;100.00;100293.75;5033022;28;20041;-64
2023/07/28 07:36:04;;;;;;;0.73;0.22;;;;;;;20.62;100.00;100296.13;5044424;28;20044;-64
2023/07/28 07:38:29;;;;;;;2.10;0.45;;;;;;;20.54;100.00;100297.50;5044671;28;20057;-64
2023/07/28 07:40:55;;;;;;;3.65;0.57;;;;;;;20.65;100.00;100295.09;5040828;28;20582;-65
2023/07/28 07:43:20;;;;;;;0.63;0.30;;;;;;;20.67;100.00;100303.72;5032753;28;20068;-64
2023/07/28 07:45:47;;;;;;;2.78;0.30;;;;;;;20.79;100.00;100305.69;5037309;28;20045;-65
2023/07/28 07:48:13;;;;;;;1.40;0.40;;;;;;;20.88;100.00;100306.94;5039419;28;20045;-64
2023/07/28 07:50:38;;;;;;;1.92;0.50;;;;;;;21.08;100.00;100304.84;5045183;28;20049;-64
2023/07/28 07:53:04;;;;;;;0.25;0.20;;;;;;;21.24;100.00;100315.28;5038984;28;20536;-64
2023/07/28 07:55:31;;;;;;;1.35;0.40;;;;;;;21.38;100.00;100312.69;5034472;28;20700;-64
2023/07/28 07:57:57;;;;;;;0.20;0.20;;;;;;;21.49;100.00;100315.50;5051222;28;20052;-65
2023/07/28 08:00:23;;;;;;;0.75;0.40;;;;;;;21.51;98.27;100318.06;5042449;28;20041;-64
2023/07/28 08:02:49;;;;;;;1.48;0.20;;;;;;;21.51;96.85;100318.06;5039807;28;20044;-64
2023/07/28 08:05:15;;;;;;;1.75;0.32;;;;;;;21.45;96.86;100315.78;5036954;28;20033;-64
2023/07/28 08:07:40;;;;;;;0.68;0.30;;;;;;;21.46;96.63;100318.31;5039928;28;20755;-64
2023/07/28 08:10:06;;;;;;;0.85;0.40;;;;;;;21.46;96.49;100318.31;5047118;28;20080;-64
2023/07/28 08:12:32;;;;;;;1.55;0.30;;;;;;;21.48;96.71;100324.34;5034032;28;20478;-64
2023/07/28 08:14:57;;;;;;;1.08;0.40;;;;;;;21.54;97.10;100326.63;5036551;28;20045;-65
2023/07/28 08:17:23;;;;;;;1.33;0.55;;;;;;;21.63;97.23;100331.34;5033016;28;20065;-64
2023/07/28 08:19:48;;;;;;;0.28;0.28;;;;;;;21.70;97.32;100319.50;5040860;28;20134;-64
2023/07/28 08:22:14;;;;;;;1.70;0.63;;;;;;;21.73;94.57;100328.97;5038498;28;20091;-65
2023/07/28 08:24:39;;;;;;;0.60;0.38;;;;;;;21.87;94.69;100330.78;5037048;28;20067;-65
2023/07/28 08:27:05;;;;;;;0.45;0.35;;;;;;;21.85;92.33;100327.41;5034597;28;20119;-64
2023/07/28 08:29:30;;;;;;;0.52;0.40;;;;;;;21.91;92.48;100327.03;5042831;28;20052;-64
2023/07/28 08:31:55;;;;;;;1.98;0.32;;;;;;;21.95;92.46;100328.53;5037146;28;20036;-64
2023/07/28 08:34:21;;;;;;;1.10;0.40;;;;;;;21.92;92.31;100326.06;5034989;28;20033;-64
2023/07/28 08:36:46;;;;;;;0.70;0.20;;;;;;;22.11;93.15;100326.63;5032929;28;20048;-64
2023/07/28 08:39:11;;;;;;;2.08;0.60;;;;;;;22.16;91.52;100328.03;5040987;28;20544;-64
2023/07/28 08:41:37;;;;;;;0.98;0.40;;;;;;;22.32;92.60;100320.84;5033037;28;20051;-65
2023/07/28 08:44:03;;;;;;;1.23;0.20;;;;;;;22.33;91.09;100325.16;5034545;28;20033;-65
2023/07/28 08:46:28;;;;;;;1.20;0.52;;;;;;;22.24;91.21;100325.75;5035824;28;20187;-64
2023/07/28 08:48:54;;;;;;;0.30;0.20;;;;;;;22.19;91.69;100330.47;5039296;28;20033;-65
2023/07/28 08:51:23;;;;;;;1.02;0.45;;;;;;;22.21;91.38;100323.31;5043864;28;20091;-64
2023/07/28 08:53:49;;;;;;;1.70;0.50;;;;;;;22.20;89.11;100326.06;5048324;28;20075;-64
2023/07/28 08:56:14;;;;;;;0.30;0.30;;;;;;;22.28;90.74;100335.16;5039210;28;20115;-64
2023/07/28 08:58:40;;;;;;;1.13;0.28;;;;;;;22.39;88.59;100321.34;5027321;28;20040;-64
2023/07/28 09:01:05;;;;;;;0.40;0.30;;;;;;;22.55;87.99;100326.47;5033128;28;20040;-65
2023/07/28 09:03:31;;;;;;;0.22;0.20;;;;;;;22.50;88.45;100326.75;5043914;28;20523;-65
2023/07/28 09:06:01;;;;;;;1.10;0.38;;;;;;;22.52;88.27;100316.13;5045709;28;20106;-64
2023/07/28 09:08:27;;;;;;;0.80;0.30;;;;;;;22.50;87.04;100331.19;5038954;28;20064;-65
2023/07/28 09:10:54;;;;;;;0.30;0.30;;;;;;;22.62;87.93;100325.97;5042834;28;20111;-65
2023/07/28 09:13:20;;;;;;;0.55;0.22;;;;;;;22.73;87.64;100331.41;5037317;28;20132;-65
2023/07/28 09:15:46;;;;;;;0.70;0.40;;;;;;;22.86;88.19;100326.16;5028753;28;20083;-64
2023/07/28 09:18:16;;;;;;;2.53;0.40;;;;;;;23.06;88.51;100328.34;5037635;28;20025;-65
2023/07/28 09:20:42;;;;;;;1.08;0.43;;;;;;;23.23;87.85;100328.06;5031104;28;20033;-65
2023/07/28 09:23:09;;;;;;;0.75;0.20;;;;;;;23.27;88.16;100326.91;5035734;28;20039;-62
2023/07/28 09:25:37;;;;;;;2.70;0.57;;;;;;;23.21;88.16;100326.50;5034950;28;20025;-62
2023/07/28 09:28:04;;;;;;;0.20;0.20;;;;;;;23.10;86.13;100337.72;5033864;28;20076;-63
2023/07/28 09:30:49;;;;;;;0.40;0.30;;;;;;;23.01;86.51;100324.28;5034908;28;20049;-62
2023/07/28 09:33:32;;;;;;;0.98;0.20;;;;;;;22.90;82.30;100317.09;5033630;28;20657;-61
2023/07/28 09:36:12;;;;;;;0.52;0.40;;;;;;;22.96;86.14;100332.50;5033775;28;20545;-62
2023/07/28 09:38:42;;;;;;;1.00;0.35;;;;;;;23.06;87.18;100335.38;5036013;28;20073;-62
2023/07/28 09:41:11;;;;;;;1.50;0.50;;;;;;;23.23;86.11;100327.22;5040435;28;20034;-62
2023/07/28 09:43:37;;;;;;;1.60;0.30;;;;;;;23.42;84.74;100325.03;5050825;28;20016;-62
2023/07/28 09:46:06;;;;;;;1.60;0.25;;;;;;;23.52;84.24;100326.09;5036472;28;20126;-63
2023/07/28 09:48:33;;;;;;;0.22;0.22;;;;;;;23.55;83.50;100331.16;5034808;28;20072;-62
2023/07/28 09:51:02;;;;;;;2.15;0.30;;;;;;;23.42;82.84;100322.41;5031327;28;20064;-62
2023/07/28 09:53:28;;;;;;;0.40;0.30;;;;;;;23.30;83.84;100331.97;5028763;28;20041;-62
2023/07/28 09:55:55;;;;;;;0.30;0.28;;;;;;;23.19;84.50;100325.72;5036108;28;20035;-62
2023/07/28 09:58:24;;;;;;;0.75;0.30;;;;;;;23.07;85.93;100331.78;5037162;28;20036;-62
2023/07/28 10:00:50;;;;;;;0.30;0.30;;;;;;;22.97;83.37;100326.31;5030466;28;20143;-62
2023/07/28 10:03:16;;;;;;;0.93;0.52;;;;;;;23.02;84.44;100326.84;5033276;28;20095;-62
2023/07/28 10:05:42;;;;;;;0.35;0.30;;;;;;;23.08;84.73;100331.69;5038452;28;20040;-62
2023/07/28 10:08:09;;;;;;;0.45;0.20;;;;;;;22.99;84.73;100332.31;5049597;28;20131;-62
2023/07/28 10:10:35;;;;;;;0.20;0.20;;;;;;;22.82;82.42;100337.84;5043567;28;20024;-61
2023/07/28 10:13:01;;;;;;;0.47;0.20;;;;;;;22.69;82.19;100329.91;5034426;28;20036;-62
2023/07/28 10:15:32;;;;;;;0.35;0.20;;;;;;;22.76;82.00;100322.44;5039488;28;20282;-61
2023/07/28 10:17:59;;;;;;;0.35;0.22;;;;;;;22.89;82.45;100332.06;5035133;28;20029;-62
2023/07/28 10:20:38;;;;;;;0.55;0.40;;;;;;;23.05;81.57;100326.63;5035304;28;20040;-62
2023/07/28 10:23:04;;;;;;;0.63;0.35;;;;;;;23.26;81.74;100327.00;5036751;28;20062;-62
2023/07/28 10:25:33;;;;;;;2.17;0.30;;;;;;;23.36;80.80;100339.47;5041533;28;20482;-61
2023/07/28 10:27:59;;;;;;;0.47;0.22;;;;;;;23.32;80.78;100334.50;5031896;28;20041;-62
2023/07/28 10:30:24;;;;;;;0.35;0.30;;;;;;;23.28;81.59;100339.16;5034456;28;20068;-62
2023/07/28 10:32:52;;;;;;;0.52;0.40;;;;;;;23.32;82.06;100334.50;5030463;28;20069;-62
2023/07/28 10:35:18;;;;;;;0.90;0.30;;;;;;;23.32;81.89;100343.28;5026947;28;20048;-62
2023/07/28 10:37:47;;;;;;;1.48;0.40;;;;;;;23.22;82.69;100344.81;5042005;28;20018;-62
2023/07/28 10:40:28;;;;;;;0.30;0.25;;;;;;;23.06;81.44;100344.16;5029404;28;20806;-62
2023/07/28 10:42:54;;;;;;;0.57;0.50;;;;;;;22.93;83.54;100353.81;5036345;28;20045;-62
2023/07/28 10:45:22;;;;;;;1.33;0.50;;;;;;;22.89;84.82;100350.50;5036640;28;20068;-62
2023/07/28 10:47:48;;;;;;;0.68;0.30;;;;;;;22.93;84.69;100343.25;5037739;28;20065;-63
2023/07/28 10:50:13;;;;;;;0.30;0.20;;;;;;;23.27;83.97;100340.09;5034566;28;20136;-62
2023/07/28 10:52:40;;;;;;;0.55;0.20;;;;;;;23.35;78.44;100323.75;5039410;28;20040;-63
2023/07/28 10:55:15;;;;;;;1.13;0.40;;;;;;;23.34;78.18;100328.19;5039740;28;20029;-63
2023/07/28 10:57:41;;;;;;;;;;;;;;;23.31;76.64;100323.13;5047701;28;20769;-63
2023/07/28 11:00:07;;;;;;;0.40;0.20;;;;;;;23.36;78.42;100330.72;5035982;28;19926;-63
2023/07/28 11:02:33;;;;;;;0.30;0.20;;;;;;;23.28;79.53;100338.28;5031974;28;20908;-63
2023/07/28 11:04:58;;;;;;;1.35;0.52;;;;;;;23.12;80.56;100343.75;5034248;28;20112;-63
2023/07/28 11:07:24;;;;;;;0.40;0.40;;;;;;;23.01;81.40;100342.75;5032922;28;20032;-63
2023/07/28 11:09:50;;;;;;;0.38;0.30;;;;;;;22.92;81.62;100347.69;5041506;28;20040;-63
2023/07/28 11:12:16;;;;;;;2.03;0.28;;;;;;;22.83;79.61;100340.38;5037921;28;20046;-63
2023/07/28 11:14:42;;;;;;;0.52;0.47;;;;;;;22.91;80.75;100339.88;5036017;28;20136;-63